createdAt,value
2023-05-10T00:01:19.624Z,29.60
2023-05-10T00:03:46.469Z,24.27
2023-05-10T00:06:13.436Z,25.20
2023-05-10T00:08:40.152Z,24.80
2023-05-10T00:11:06.882Z,24.58
2023-05-10T00:13:33.687Z,24.63
2023-05-10T00:16:02.156Z,26.33
2023-05-10T00:18:30.311Z,26.67
2023-05-10T00:20:59.293Z,26.60
2023-05-10T00:23:26.216Z,25.58
2023-05-10T00:25:52.956Z,27.23
2023-05-10T00:28:19.994Z,27.23
2023-05-10T00:30:46.872Z,28.17
2023-05-10T00:33:13.580Z,29.50
2023-05-10T00:35:40.384Z,29.73
2023-05-10T00:38:08.074Z,30.13
2023-05-10T00:40:37.055Z,29.65
2023-05-10T00:43:06.281Z,29.67
2023-05-10T00:45:34.086Z,30.45
2023-05-10T00:48:03.447Z,29.25
2023-05-10T00:50:35.857Z,31.63
2023-05-10T00:53:03.655Z,29.88
2023-05-10T00:55:31.376Z,30.23
2023-05-10T00:58:00.153Z,32.50
2023-05-10T01:00:26.892Z,32.08
2023-05-10T01:02:55.191Z,31.17
2023-05-10T01:05:23.402Z,32.90
2023-05-10T01:07:50.862Z,34.95
2023-05-10T01:10:17.900Z,32.15
2023-05-10T01:12:47.411Z,35.00
2023-05-10T01:15:17.066Z,36.13
2023-05-10T01:17:48.327Z,36.22
2023-05-10T01:20:16.680Z,36.53
2023-05-10T01:23:22.146Z,35.28
2023-05-10T01:25:58.012Z,37.65
2023-05-10T01:28:46.235Z,35.42
2023-05-10T01:31:41.211Z,38.35
2023-05-10T01:34:28.662Z,37.03
2023-05-10T01:37:02.715Z,37.65
2023-05-10T01:39:55.655Z,38.80
2023-05-10T01:42:30.023Z,34.70
2023-05-10T01:45:08.518Z,36.15
2023-05-10T01:47:44.293Z,35.83
2023-05-10T01:50:18.163Z,36.85
2023-05-10T01:52:50.442Z,36.40
2023-05-10T01:55:21.653Z,38.78
2023-05-10T01:57:55.987Z,36.88
2023-05-10T02:00:24.559Z,37.75
2023-05-10T02:02:53.924Z,38.85
2023-05-10T02:05:22.733Z,41.97
2023-05-10T02:07:50.975Z,41.97
2023-05-10T02:10:19.242Z,47.95
2023-05-10T02:12:50.928Z,47.00
2023-05-10T02:15:22.434Z,49.00
2023-05-10T02:17:50.173Z,49.80
2023-05-10T02:20:19.648Z,48.58
2023-05-10T02:22:50.302Z,49.53
2023-05-10T02:25:20.413Z,48.85
2023-05-10T02:27:48.529Z,49.95
2023-05-10T02:30:16.870Z,48.80
2023-05-10T02:32:44.921Z,48.58
2023-05-10T02:35:12.303Z,48.92
2023-05-10T02:37:40.716Z,46.10
2023-05-10T02:40:09.736Z,46.65
2023-05-10T02:42:41.072Z,47.42
2023-05-10T02:45:12.673Z,47.25
2023-05-10T02:47:40.345Z,45.13
2023-05-10T02:50:08.019Z,42.67
2023-05-10T02:52:48.782Z,45.03
2023-05-10T02:55:17.327Z,36.47
2023-05-10T02:57:53.453Z,40.13
2023-05-10T03:00:20.395Z,39.63
2023-05-10T03:02:49.594Z,38.35
2023-05-10T03:05:16.806Z,38.63
2023-05-10T03:07:44.368Z,36.35
2023-05-10T03:10:11.680Z,35.45
2023-05-10T03:12:46.680Z,36.20
2023-05-10T03:15:30.084Z,32.78
2023-05-10T03:18:10.341Z,33.30
2023-05-10T03:20:44.118Z,32.15
2023-05-10T03:23:41.404Z,27.30
2023-05-10T03:26:09.718Z,29.83
2023-05-10T03:28:37.961Z,29.38
2023-05-10T03:31:07.290Z,28.83
2023-05-10T03:33:34.510Z,27.42
2023-05-10T03:36:01.446Z,29.70
2023-05-10T03:38:30.221Z,30.35
2023-05-10T03:40:57.704Z,28.33
2023-05-10T03:43:24.554Z,27.35
2023-05-10T03:45:52.463Z,27.65
2023-05-10T03:48:19.093Z,25.17
2023-05-10T03:50:45.901Z,26.63
2023-05-10T03:53:13.291Z,26.65
2023-05-10T03:55:40.238Z,26.98
2023-05-10T03:58:06.922Z,26.58
2023-05-10T04:00:34.533Z,26.15
2023-05-10T04:03:01.851Z,24.88
2023-05-10T04:05:28.610Z,26.05
2023-05-10T04:07:55.408Z,26.77
2023-05-10T04:10:22.217Z,24.77
2023-05-10T04:12:48.921Z,25.67
2023-05-10T04:15:15.960Z,26.92
2023-05-10T04:17:42.804Z,25.30
2023-05-10T04:20:10.184Z,24.70
2023-05-10T04:22:36.912Z,25.05
2023-05-10T04:25:03.879Z,25.15
2023-05-10T04:27:30.567Z,25.00
2023-05-10T04:29:57.445Z,24.35
2023-05-10T04:32:24.427Z,24.77
2023-05-10T04:34:54.387Z,24.98
2023-05-10T04:37:23.490Z,24.27
2023-05-10T04:39:50.262Z,28.85
2023-05-10T04:42:17.028Z,23.92
2023-05-10T04:44:43.686Z,25.25
2023-05-10T04:47:12.624Z,24.38
2023-05-10T04:49:39.534Z,24.20
2023-05-10T04:52:06.180Z,25.00
2023-05-10T04:54:32.918Z,23.40
2023-05-10T04:56:59.518Z,23.83
2023-05-10T04:59:26.982Z,24.50
2023-05-10T05:01:53.768Z,21.98
2023-05-10T05:04:20.522Z,23.63
2023-05-10T05:06:47.358Z,23.92
2023-05-10T05:09:13.975Z,22.60
2023-05-10T05:11:41.378Z,22.05
2023-05-10T05:14:08.011Z,23.05
2023-05-10T05:16:35.322Z,21.77
2023-05-10T05:19:02.704Z,22.60
2023-05-10T05:21:29.944Z,22.15
2023-05-10T05:23:56.673Z,21.63
2023-05-10T05:26:23.440Z,21.95
2023-05-10T05:28:52.746Z,22.70
2023-05-10T05:31:20.049Z,22.98
2023-05-10T05:33:46.964Z,23.13
2023-05-10T05:36:13.589Z,22.92
2023-05-10T05:38:40.226Z,22.80
2023-05-10T05:41:06.836Z,23.45
2023-05-10T05:43:34.103Z,22.95
2023-05-10T05:46:02.203Z,21.67
2023-05-10T05:48:30.846Z,22.60
2023-05-10T05:50:58.112Z,22.48
2023-05-10T05:53:25.312Z,24.52
2023-05-10T05:55:56.452Z,25.35
2023-05-10T05:58:23.792Z,22.73
2023-05-10T06:00:51.300Z,24.25
2023-05-10T06:03:18.632Z,24.95
2023-05-10T06:05:45.473Z,24.70
2023-05-10T06:08:12.119Z,23.52
2023-05-10T06:10:38.844Z,26.75
2023-05-10T06:13:08.401Z,25.13
2023-05-10T06:15:35.741Z,23.80
2023-05-10T06:18:02.925Z,25.77
2023-05-10T06:20:29.756Z,21.08
2023-05-10T06:22:56.470Z,15.30
2023-05-10T06:25:23.118Z,20.08
2023-05-10T06:27:53.403Z,20.48
2023-05-10T06:30:21.319Z,16.23
2023-05-10T06:32:48.288Z,17.92
2023-05-10T06:35:15.121Z,14.50
2023-05-10T06:37:42.041Z,15.77
2023-05-10T06:40:09.212Z,14.73
2023-05-10T06:42:35.963Z,13.32
2023-05-10T06:45:03.877Z,12.75
2023-05-10T06:47:32.914Z,13.60
2023-05-10T06:49:59.879Z,14.80
2023-05-10T06:52:26.770Z,13.43
2023-05-10T06:54:53.511Z,10.68
2023-05-10T06:57:31.295Z,13.95
2023-05-10T07:00:00.350Z,10.70
2023-05-10T07:02:27.285Z,12.88
2023-05-10T07:04:54.247Z,12.20
2023-05-10T07:07:21.389Z,12.70
2023-05-10T07:09:48.536Z,11.23
2023-05-10T07:12:16.043Z,14.43
2023-05-10T07:14:43.263Z,11.45
2023-05-10T07:17:10.961Z,10.00
2023-05-10T07:19:38.294Z,9.23
2023-05-10T07:22:05.029Z,9.10
2023-05-10T07:24:33.504Z,9.80
2023-05-10T07:27:01.246Z,9.45
2023-05-10T07:29:28.254Z,9.40
2023-05-10T07:31:57.931Z,8.43
2023-05-10T07:34:26.072Z,7.45
2023-05-10T07:36:53.535Z,6.63
2023-05-10T07:39:27.260Z,6.35
2023-05-10T07:41:56.049Z,7.20
2023-05-10T07:44:23.092Z,6.28
2023-05-10T07:46:49.971Z,6.53
2023-05-10T07:49:17.284Z,5.80
2023-05-10T07:51:44.089Z,6.05
2023-05-10T07:54:10.697Z,5.53
2023-05-10T07:56:37.592Z,5.30
2023-05-10T07:59:06.074Z,5.22
2023-05-10T08:01:34.145Z,4.57
2023-05-10T08:04:01.842Z,5.30
2023-05-10T08:06:30.757Z,4.90
2023-05-10T08:08:57.542Z,5.05
2023-05-10T08:11:24.212Z,4.13
2023-05-10T08:13:51.752Z,4.47
2023-05-10T08:16:19.027Z,4.20
2023-05-10T08:18:47.963Z,4.65
2023-05-10T08:21:15.517Z,4.50
2023-05-10T08:23:44.468Z,4.40
2023-05-10T08:26:11.593Z,4.35
2023-05-10T08:28:38.372Z,4.40
2023-05-10T08:31:06.185Z,3.90
2023-05-10T08:33:32.966Z,4.07
2023-05-10T08:36:00.019Z,3.53
2023-05-10T08:38:27.004Z,4.00
2023-05-10T08:40:57.659Z,3.80
2023-05-10T08:43:30.233Z,3.88
2023-05-10T08:45:57.790Z,3.55
2023-05-10T08:48:25.773Z,3.70
2023-05-10T08:50:58.528Z,3.40
2023-05-10T08:53:28.632Z,3.50
2023-05-10T08:55:56.500Z,4.18
2023-05-10T08:58:23.283Z,4.30
2023-05-10T09:00:51.894Z,3.90
2023-05-10T09:03:19.202Z,4.32
2023-05-10T09:05:46.205Z,4.28
2023-05-10T09:08:14.319Z,4.05
2023-05-10T09:10:43.215Z,4.95
2023-05-10T09:13:12.597Z,4.43
2023-05-10T09:15:39.943Z,3.83
2023-05-10T09:18:07.092Z,4.40
2023-05-10T09:20:33.872Z,3.70
2023-05-10T09:23:00.638Z,4.40
2023-05-10T09:25:30.124Z,3.75
2023-05-10T09:27:57.308Z,3.88
2023-05-10T09:30:26.769Z,3.95
2023-05-10T09:32:54.497Z,3.67
2023-05-10T09:35:26.570Z,3.70
2023-05-10T09:37:57.153Z,4.35
2023-05-10T09:40:26.526Z,4.97
2023-05-10T09:42:55.890Z,4.43
2023-05-10T09:45:24.905Z,4.63
2023-05-10T09:47:51.802Z,5.03
2023-05-10T09:50:18.578Z,4.75
2023-05-10T09:52:55.447Z,5.50
2023-05-10T09:55:24.767Z,6.03
2023-05-10T09:58:02.403Z,5.57
2023-05-10T10:00:29.552Z,4.90
2023-05-10T10:03:00.438Z,4.55
2023-05-10T10:05:34.325Z,4.00
2023-05-10T10:08:03.419Z,3.88
2023-05-10T10:10:31.731Z,4.20
2023-05-10T10:12:58.719Z,4.20
2023-05-10T10:15:26.022Z,3.90
2023-05-10T10:17:54.615Z,3.63
2023-05-10T10:20:23.206Z,3.92
2023-05-10T10:22:50.627Z,4.07
2023-05-10T10:25:19.968Z,3.72
2023-05-10T10:28:07.963Z,4.63
2023-05-10T10:30:44.742Z,4.43
2023-05-10T10:33:54.021Z,4.82
2023-05-10T10:36:21.517Z,5.00
2023-05-10T10:38:48.055Z,5.13
2023-05-10T10:41:30.440Z,4.60
2023-05-10T10:44:34.497Z,5.18
2023-05-10T10:47:31.873Z,4.15
2023-05-10T10:49:58.781Z,4.47
2023-05-10T10:52:34.238Z,3.70
2023-05-10T10:55:15.306Z,4.57
2023-05-10T10:57:42.260Z,4.10
2023-05-10T11:00:31.492Z,4.20
2023-05-10T11:03:09.658Z,3.85
2023-05-10T11:05:42.472Z,3.85
2023-05-10T11:08:17.479Z,3.33
2023-05-10T11:11:10.660Z,2.80
2023-05-10T11:13:50.863Z,3.10
2023-05-10T11:16:21.566Z,3.33
2023-05-10T11:19:09.192Z,2.25
2023-05-10T11:21:47.432Z,2.20
2023-05-10T11:24:16.551Z,1.90
2023-05-10T11:26:43.443Z,2.90
2023-05-10T11:29:10.545Z,2.35
2023-05-10T11:31:44.733Z,2.13
2023-05-10T11:34:12.057Z,2.03
2023-05-10T11:36:39.053Z,2.60
2023-05-10T11:39:07.081Z,2.42
2023-05-10T11:41:33.998Z,2.70
2023-05-10T11:44:04.013Z,2.70
2023-05-10T11:46:31.014Z,3.10
2023-05-10T11:49:05.610Z,2.47
2023-05-10T11:51:37.398Z,3.42
2023-05-10T11:54:12.190Z,3.40
2023-05-10T11:56:40.346Z,3.70
2023-05-10T11:59:07.530Z,3.50
2023-05-10T12:01:34.629Z,3.33
2023-05-10T12:04:01.936Z,3.20
2023-05-10T12:06:32.268Z,2.40
2023-05-10T12:08:59.786Z,2.55
2023-05-10T12:11:28.266Z,2.80
2023-05-10T12:13:56.261Z,2.70
2023-05-10T12:16:25.665Z,3.65
2023-05-10T12:18:53.951Z,2.88
2023-05-10T12:21:29.522Z,3.00
2023-05-10T12:24:02.362Z,2.83
2023-05-10T12:26:29.659Z,2.40
2023-05-10T12:29:12.480Z,2.38
2023-05-10T12:31:59.392Z,2.50
2023-05-10T12:34:33.807Z,2.28
2023-05-10T12:37:01.901Z,1.83
2023-05-10T12:39:40.445Z,1.98
2023-05-10T12:42:07.327Z,1.50
2023-05-10T12:44:33.901Z,1.30
2023-05-10T12:47:00.802Z,1.42
2023-05-10T12:49:27.289Z,1.58
2023-05-10T12:51:54.117Z,1.60
2023-05-10T12:54:21.904Z,2.05
2023-05-10T12:56:48.605Z,1.73
2023-05-10T12:59:15.276Z,2.40
2023-05-10T13:01:42.010Z,3.40
2023-05-10T13:04:08.821Z,3.65
2023-05-10T13:06:36.216Z,3.75
2023-05-10T13:09:03.463Z,3.70
2023-05-10T13:11:30.353Z,3.55
2023-05-10T13:13:56.962Z,3.55
2023-05-10T13:16:23.781Z,3.47
2023-05-10T13:18:50.900Z,4.43
2023-05-10T13:21:17.875Z,3.75
2023-05-10T13:23:44.536Z,4.30
2023-05-10T13:26:11.394Z,4.20
2023-05-10T13:28:39.687Z,4.35
2023-05-10T13:31:06.446Z,3.80
2023-05-10T13:33:33.144Z,3.17
2023-05-10T13:35:59.940Z,3.60
2023-05-10T13:38:26.788Z,3.22
2023-05-10T13:40:54.141Z,2.83
2023-05-10T13:43:21.164Z,2.85
2023-05-10T13:45:48.019Z,3.08
2023-05-10T13:48:14.745Z,3.55
2023-05-10T13:50:41.459Z,3.95
2023-05-10T13:53:08.167Z,3.50
2023-05-10T13:55:34.860Z,3.50
2023-05-10T13:58:01.462Z,3.45
2023-05-10T14:00:28.434Z,3.78
2023-05-10T14:02:55.502Z,4.18
2023-05-10T14:05:25.979Z,4.03
2023-05-10T14:07:53.551Z,4.68
2023-05-10T14:10:20.329Z,4.78
2023-05-10T14:12:47.196Z,4.60
2023-05-10T14:15:13.967Z,4.00
2023-05-10T14:17:40.789Z,4.00
2023-05-10T14:20:09.503Z,4.38
2023-05-10T14:22:36.554Z,4.40
2023-05-10T14:25:03.390Z,5.25
2023-05-10T14:27:31.217Z,6.00
2023-05-10T14:29:57.831Z,5.13
2023-05-10T14:32:24.526Z,4.75
2023-05-10T14:34:51.158Z,4.57
2023-05-10T14:37:17.794Z,3.70
2023-05-10T14:39:44.492Z,5.07
2023-05-10T14:42:11.111Z,5.15
2023-05-10T14:44:38.396Z,6.10
2023-05-10T14:47:05.293Z,5.07
2023-05-10T14:49:32.610Z,3.90
2023-05-10T14:52:01.592Z,4.60
2023-05-10T14:54:28.500Z,4.00
2023-05-10T14:56:55.216Z,3.22
2023-05-10T14:59:22.179Z,4.18
2023-05-10T15:01:49.343Z,4.82
2023-05-10T15:04:17.489Z,3.83
2023-05-10T15:06:45.256Z,3.33
2023-05-10T15:09:12.146Z,3.40
2023-05-10T15:11:38.792Z,3.67
2023-05-10T15:14:05.679Z,4.18
2023-05-10T15:16:35.633Z,4.15
2023-05-10T15:19:03.449Z,3.72
2023-05-10T15:21:36.022Z,4.50
2023-05-10T15:24:02.754Z,4.57
2023-05-10T15:26:32.477Z,4.70
2023-05-10T15:29:00.266Z,5.43
2023-05-10T15:31:28.098Z,4.68
2023-05-10T15:34:01.508Z,4.88
2023-05-10T15:36:28.304Z,6.10
2023-05-10T15:38:55.711Z,5.72
2023-05-10T15:41:22.857Z,6.28
2023-05-10T15:43:49.543Z,5.97
2023-05-10T15:46:16.385Z,6.25
2023-05-10T15:48:43.537Z,4.95
2023-05-10T15:51:10.469Z,4.72
2023-05-10T15:53:37.181Z,4.70
2023-05-10T15:56:04.171Z,5.45
2023-05-10T15:58:31.020Z,4.90
2023-05-10T16:00:57.854Z,6.00
2023-05-10T16:03:24.913Z,5.75
2023-05-10T16:05:51.887Z,6.90
2023-05-10T16:08:18.582Z,6.60
2023-05-10T16:10:45.773Z,6.95
2023-05-10T16:13:12.504Z,7.38
2023-05-10T16:15:39.039Z,5.43
2023-05-10T16:18:06.102Z,5.38
2023-05-10T16:20:33.168Z,5.20
2023-05-10T16:23:05.055Z,5.35
2023-05-10T16:25:32.594Z,3.90
2023-05-10T16:28:00.232Z,3.97
2023-05-10T16:30:30.404Z,4.35
2023-05-10T16:32:58.208Z,5.28
2023-05-10T16:35:25.026Z,4.47
2023-05-10T16:37:52.519Z,3.85
2023-05-10T16:40:19.475Z,4.30
2023-05-10T16:42:46.218Z,3.90
2023-05-10T16:45:13.196Z,4.03
2023-05-10T16:47:40.630Z,4.13
2023-05-10T16:50:08.752Z,3.85
2023-05-10T16:52:36.425Z,3.40
2023-05-10T16:55:04.604Z,3.20
2023-05-10T16:57:32.902Z,3.47
2023-05-10T16:59:59.687Z,2.97
2023-05-10T17:02:26.725Z,3.80
2023-05-10T17:04:56.150Z,2.88
2023-05-10T17:07:25.463Z,3.15
2023-05-10T17:09:55.074Z,3.05
2023-05-10T17:12:21.646Z,2.95
2023-05-10T17:14:48.237Z,3.20
2023-05-10T17:17:14.848Z,3.50
2023-05-10T17:19:44.928Z,3.38
2023-05-10T17:22:15.217Z,3.13
2023-05-10T17:24:41.775Z,2.90
2023-05-10T17:27:08.496Z,3.67
2023-05-10T17:29:35.088Z,3.13
2023-05-10T17:32:02.041Z,3.92
2023-05-10T17:34:31.444Z,3.70
2023-05-10T17:36:59.910Z,3.88
2023-05-10T17:39:26.545Z,3.42
2023-05-10T17:41:53.297Z,3.90
2023-05-10T17:44:20.025Z,3.78
2023-05-10T17:46:46.999Z,4.03
2023-05-10T17:49:14.001Z,3.17
2023-05-10T17:51:44.048Z,4.10
2023-05-10T17:54:15.078Z,4.15
2023-05-10T17:56:42.171Z,4.00
2023-05-10T17:59:10.645Z,4.35
2023-05-10T18:01:40.178Z,4.88
2023-05-10T18:04:09.886Z,4.95
2023-05-10T18:06:38.555Z,5.47
2023-05-10T18:09:10.071Z,5.57
2023-05-10T18:11:38.605Z,5.60
2023-05-10T18:14:07.617Z,5.32
2023-05-10T18:16:34.855Z,4.70
2023-05-10T18:19:08.510Z,5.20
2023-05-10T18:21:35.884Z,4.97
2023-05-10T18:24:02.960Z,5.53
2023-05-10T18:26:30.053Z,6.35
2023-05-10T18:28:59.213Z,6.45
2023-05-10T18:31:28.225Z,6.57
2023-05-10T18:33:57.430Z,7.38
2023-05-10T18:36:24.388Z,6.43
2023-05-10T18:38:55.522Z,7.90
2023-05-10T18:41:22.678Z,6.95
2023-05-10T18:43:49.353Z,7.53
2023-05-10T18:46:16.126Z,7.75
2023-05-10T18:48:42.705Z,7.45
2023-05-10T18:51:10.337Z,7.70
2023-05-10T18:53:37.580Z,7.38
2023-05-10T18:56:04.468Z,7.75
2023-05-10T18:58:31.355Z,8.10
2023-05-10T19:00:58.852Z,9.15
2023-05-10T19:03:25.870Z,8.52
2023-05-10T19:05:52.690Z,8.75
2023-05-10T19:08:19.352Z,8.88
2023-05-10T19:10:46.192Z,8.73
2023-05-10T19:13:14.899Z,8.57
2023-05-10T19:15:42.139Z,7.95
2023-05-10T19:18:09.665Z,8.15
2023-05-10T19:20:38.512Z,9.00
2023-05-10T19:23:10.279Z,9.02
2023-05-10T19:25:37.337Z,8.75
2023-05-10T19:28:04.184Z,8.93
2023-05-10T19:30:31.888Z,10.20
2023-05-10T19:32:58.601Z,9.52
2023-05-10T19:35:25.333Z,9.32
2023-05-10T19:37:53.130Z,10.00
2023-05-10T19:40:20.006Z,10.20
2023-05-10T19:42:46.972Z,9.43
2023-05-10T19:45:16.063Z,9.23
2023-05-10T19:47:43.466Z,9.63
2023-05-10T19:50:12.419Z,9.23
2023-05-10T19:52:39.483Z,9.43
2023-05-10T19:55:07.330Z,9.57
2023-05-10T19:57:33.937Z,10.38
2023-05-10T20:00:00.924Z,12.13
2023-05-10T20:02:29.106Z,10.75
2023-05-10T20:04:55.884Z,10.68
2023-05-10T20:07:22.404Z,11.98
2023-05-10T20:09:49.615Z,10.40
2023-05-10T20:12:16.403Z,12.13
2023-05-10T20:14:43.271Z,11.15
2023-05-10T20:17:10.168Z,10.48
2023-05-10T20:19:37.049Z,10.52
2023-05-10T20:22:05.412Z,10.85
2023-05-10T20:24:32.444Z,12.90
2023-05-10T20:26:59.159Z,12.32
2023-05-10T20:29:26.512Z,11.32
2023-05-10T20:31:54.578Z,13.10
2023-05-10T20:34:24.294Z,12.93
2023-05-10T20:36:50.786Z,13.18
2023-05-10T20:39:18.012Z,13.27
2023-05-10T20:41:44.768Z,13.23
2023-05-10T20:44:11.597Z,13.45
2023-05-10T20:46:38.307Z,12.75
2023-05-10T20:49:05.651Z,12.63
2023-05-10T20:51:33.363Z,11.93
2023-05-10T20:54:01.899Z,13.65
2023-05-10T20:56:28.876Z,14.43
2023-05-10T20:58:55.929Z,14.68
2023-05-10T21:01:22.824Z,14.75
2023-05-10T21:03:49.543Z,13.00
2023-05-10T21:06:16.196Z,15.45
2023-05-10T21:08:43.260Z,15.48
2023-05-10T21:11:12.710Z,15.63
2023-05-10T21:13:39.422Z,15.65
2023-05-10T21:16:06.229Z,15.57
2023-05-10T21:18:32.931Z,15.88
2023-05-10T21:20:59.911Z,14.57
2023-05-10T21:23:26.992Z,15.20
2023-05-10T21:25:53.767Z,16.75
2023-05-10T21:28:21.585Z,14.85
2023-05-10T21:30:48.183Z,16.63
2023-05-10T21:33:14.941Z,15.90
2023-05-10T21:35:42.927Z,16.40
2023-05-10T21:38:09.913Z,16.15
2023-05-10T21:40:36.763Z,16.27
2023-05-10T21:43:03.603Z,16.25
2023-05-10T21:45:33.224Z,16.50
2023-05-10T21:48:00.316Z,15.80
2023-05-10T21:50:27.532Z,16.88
2023-05-10T21:52:55.180Z,18.83
2023-05-10T21:55:22.305Z,17.50
2023-05-10T21:57:50.115Z,17.00
2023-05-10T22:00:19.367Z,17.13
2023-05-10T22:02:46.878Z,18.85
2023-05-10T22:05:13.676Z,18.63
2023-05-10T22:07:40.687Z,19.90
2023-05-10T22:10:09.991Z,18.02
2023-05-10T22:12:36.989Z,19.45
2023-05-10T22:15:10.353Z,19.88
2023-05-10T22:17:40.025Z,18.45
2023-05-10T22:20:08.379Z,20.67
2023-05-10T22:22:35.112Z,19.35
2023-05-10T22:25:02.267Z,18.90
2023-05-10T22:27:29.123Z,19.40
2023-05-10T22:29:56.670Z,20.38
2023-05-10T22:32:23.420Z,18.58
2023-05-10T22:34:50.255Z,18.23
2023-05-10T22:37:17.753Z,19.83
2023-05-10T22:39:48.777Z,20.73
2023-05-10T22:42:15.989Z,19.38
2023-05-10T22:44:44.256Z,20.85
2023-05-10T22:47:11.072Z,19.95
2023-05-10T22:49:38.320Z,20.55
2023-05-10T22:52:05.319Z,19.63
2023-05-10T22:54:33.692Z,20.58
2023-05-10T22:57:01.829Z,21.90
2023-05-10T22:59:28.871Z,21.50
2023-05-10T23:01:56.079Z,20.50
2023-05-10T23:04:23.219Z,20.40
2023-05-10T23:06:49.937Z,18.92
2023-05-10T23:09:16.809Z,20.38
2023-05-10T23:11:43.425Z,21.45
2023-05-10T23:14:10.206Z,20.58
2023-05-10T23:16:37.094Z,20.70
2023-05-10T23:19:04.100Z,20.60
2023-05-10T23:21:32.100Z,20.50
2023-05-10T23:23:59.163Z,21.25
2023-05-10T23:26:26.050Z,20.92
2023-05-10T23:28:52.712Z,21.48
2023-05-10T23:31:19.412Z,21.58
2023-05-10T23:33:46.049Z,21.02
2023-05-10T23:36:12.698Z,21.30
2023-05-10T23:38:39.534Z,20.88
2023-05-10T23:41:06.534Z,22.42
2023-05-10T23:43:33.130Z,20.55
2023-05-10T23:46:00.023Z,19.75
2023-05-10T23:48:26.804Z,21.13
2023-05-10T23:50:53.506Z,21.13
2023-05-10T23:53:20.175Z,20.55
2023-05-10T23:55:47.106Z,21.55
2023-05-10T23:58:13.924Z,20.63
